createdAt,value
2019-03-05T00:01:45.725Z,72.06
2019-03-05T00:04:14.891Z,72.35
2019-03-05T00:06:44.067Z,72.84
2019-03-05T00:09:21.107Z,72.97
2019-03-05T00:11:50.279Z,72.68
2019-03-05T00:14:21.075Z,72.89
2019-03-05T00:16:50.313Z,72.54
2019-03-05T00:19:20.953Z,72.13
2019-03-05T00:21:50.135Z,72.08
2019-03-05T00:24:55.649Z,71.92
2019-03-05T00:27:24.838Z,71.65
2019-03-05T00:30:21.512Z,70.58
2019-03-05T00:32:53.749Z,70.41
2019-03-05T00:35:44.061Z,69.95
2019-03-05T00:38:16.297Z,70.28
2019-03-05T00:40:56.796Z,69.86
2019-03-05T00:43:47.059Z,69.25
2019-03-05T00:46:25.265Z,70.15
2019-03-05T00:49:00.311Z,70.17
2019-03-05T00:51:44.403Z,70.45
2019-03-05T00:54:51.719Z,70.40
2019-03-05T00:57:35.588Z,70.76
2019-03-05T01:00:33.762Z,70.00
2019-03-05T01:03:20.439Z,69.47
2019-03-05T01:05:58.569Z,69.90
2019-03-05T01:08:28.980Z,69.72
2019-03-05T01:10:58.203Z,70.94
2019-03-05T01:13:27.512Z,72.15
2019-03-05T01:15:56.894Z,71.60
2019-03-05T01:18:26.092Z,71.73
2019-03-05T01:20:56.012Z,71.62
2019-03-05T01:23:25.178Z,71.53
2019-03-05T01:25:54.342Z,71.43
2019-03-05T01:28:23.578Z,72.12
2019-03-05T01:30:56.919Z,71.74
2019-03-05T01:33:27.786Z,72.34
2019-03-05T01:35:58.707Z,72.43
2019-03-05T01:38:29.539Z,72.51
2019-03-05T01:41:00.397Z,72.64
2019-03-05T01:43:29.802Z,72.55
2019-03-05T01:45:59.001Z,72.60
2019-03-05T01:48:28.201Z,72.20
2019-03-05T01:50:57.407Z,72.10
2019-03-05T01:53:26.596Z,71.33
2019-03-05T01:55:55.809Z,71.38
2019-03-05T01:58:25.089Z,71.46
2019-03-05T02:00:54.289Z,71.36
2019-03-05T02:03:23.485Z,71.57
2019-03-05T02:05:52.815Z,71.03
2019-03-05T02:08:22.189Z,71.02
2019-03-05T02:10:51.490Z,71.28
2019-03-05T02:13:20.700Z,71.61
2019-03-05T02:15:49.893Z,71.63
2019-03-05T02:18:20.442Z,71.67
2019-03-05T02:20:49.806Z,71.84
2019-03-05T02:23:27.664Z,71.90
2019-03-05T02:26:05.480Z,72.10
2019-03-05T02:28:46.805Z,71.82
2019-03-05T02:31:30.955Z,72.08
2019-03-05T02:34:12.257Z,72.22
2019-03-05T02:37:01.221Z,71.81
2019-03-05T02:39:50.782Z,71.64
2019-03-05T02:42:41.182Z,71.29
2019-03-05T02:45:42.200Z,71.15
2019-03-05T02:48:35.890Z,70.98
2019-03-05T02:51:23.457Z,70.52
2019-03-05T02:54:18.419Z,71.39
2019-03-05T02:57:08.691Z,71.82
2019-03-05T02:59:38.515Z,71.82
2019-03-05T03:02:12.823Z,72.22
2019-03-05T03:04:46.446Z,71.94
2019-03-05T03:07:15.655Z,71.71
2019-03-05T03:09:53.759Z,70.99
2019-03-05T03:12:23.047Z,70.75
2019-03-05T03:14:52.348Z,70.25
2019-03-05T03:17:21.565Z,69.97
2019-03-05T03:19:50.755Z,69.60
2019-03-05T03:22:19.952Z,69.54
2019-03-05T03:24:49.161Z,69.45
2019-03-05T03:27:36.552Z,69.76
2019-03-05T03:30:12.355Z,70.07
2019-03-05T03:32:41.568Z,69.99
2019-03-05T03:35:12.711Z,70.41
2019-03-05T03:37:41.895Z,70.81
2019-03-05T03:40:13.852Z,70.98
2019-03-05T03:42:43.128Z,70.90
2019-03-05T03:45:19.997Z,70.81
2019-03-05T03:47:49.184Z,70.50
2019-03-05T03:50:18.422Z,70.13
2019-03-05T03:52:47.713Z,70.52
2019-03-05T03:55:16.909Z,70.65
2019-03-05T03:57:46.402Z,70.37
2019-03-05T04:00:21.024Z,70.05
2019-03-05T04:02:50.498Z,69.87
2019-03-05T04:05:19.728Z,69.78
2019-03-05T04:07:48.847Z,71.04
2019-03-05T04:10:18.457Z,73.82
2019-03-05T04:12:47.680Z,73.78
2019-03-05T04:15:18.918Z,73.27
2019-03-05T04:17:48.317Z,73.21
2019-03-05T04:20:19.576Z,74.42
2019-03-05T04:22:48.839Z,75.70
2019-03-05T04:25:18.049Z,78.21
2019-03-05T04:27:47.250Z,79.79
2019-03-05T04:30:16.540Z,80.46
2019-03-05T04:32:45.738Z,81.42
2019-03-05T04:35:15.038Z,81.49
2019-03-05T04:37:44.235Z,81.86
2019-03-05T04:40:13.755Z,81.98
2019-03-05T04:42:42.959Z,81.87
2019-03-05T04:45:52.981Z,82.50
2019-03-05T04:48:22.219Z,83.06
2019-03-05T04:51:09.316Z,84.57
2019-03-05T04:53:38.495Z,85.42
2019-03-05T04:56:07.775Z,85.33
2019-03-05T04:58:37.004Z,85.44
2019-03-05T05:01:06.237Z,85.17
2019-03-05T05:03:36.448Z,85.32
2019-03-05T05:06:05.637Z,85.51
2019-03-05T05:08:34.879Z,86.53
2019-03-05T05:11:04.133Z,86.72
2019-03-05T05:13:33.332Z,86.52
2019-03-05T05:16:02.524Z,86.19
2019-03-05T05:18:31.726Z,86.01
2019-03-05T05:21:00.972Z,85.55
2019-03-05T05:23:30.139Z,85.57
2019-03-05T05:25:59.359Z,85.91
2019-03-05T05:28:28.555Z,85.90
2019-03-05T05:30:57.771Z,86.45
2019-03-05T05:33:27.018Z,87.29
2019-03-05T05:35:56.292Z,88.85
2019-03-05T05:38:25.606Z,89.62
2019-03-05T05:40:54.916Z,89.55
2019-03-05T05:43:29.459Z,89.19
2019-03-05T05:45:58.658Z,89.70
2019-03-05T05:48:27.877Z,89.85
2019-03-05T05:50:57.055Z,89.75
2019-03-05T05:53:26.270Z,89.60
2019-03-05T05:55:55.459Z,89.32
2019-03-05T05:58:24.694Z,89.37
2019-03-05T06:00:55.549Z,89.40
2019-03-05T06:03:24.750Z,89.38
2019-03-05T06:05:53.974Z,89.47
2019-03-05T06:08:23.290Z,90.07
2019-03-05T06:10:53.226Z,90.41
2019-03-05T06:13:22.579Z,90.99
2019-03-05T06:15:51.852Z,91.09
2019-03-05T06:18:21.074Z,90.84
2019-03-05T06:20:50.384Z,90.40
2019-03-05T06:23:20.040Z,90.52
2019-03-05T06:25:50.333Z,90.01
2019-03-05T06:28:19.527Z,90.04
2019-03-05T06:30:48.739Z,90.05
2019-03-05T06:33:17.942Z,90.30
2019-03-05T06:35:47.143Z,90.34
2019-03-05T06:38:16.326Z,90.84
2019-03-05T06:40:45.618Z,90.82
2019-03-05T06:43:14.916Z,90.67
2019-03-05T06:45:44.124Z,90.15
2019-03-05T06:48:13.319Z,90.13
2019-03-05T06:51:00.945Z,90.05
2019-03-05T06:53:30.145Z,90.21
2019-03-05T06:56:17.375Z,91.07
2019-03-05T06:58:46.574Z,90.48
2019-03-05T07:01:15.820Z,90.08
2019-03-05T07:03:45.069Z,89.03
2019-03-05T07:06:51.945Z,87.84
2019-03-05T07:09:32.503Z,86.50
2019-03-05T07:12:28.851Z,80.99
2019-03-05T07:15:10.152Z,81.04
2019-03-05T07:18:13.883Z,78.64
2019-03-05T07:21:11.598Z,78.25
2019-03-05T07:24:00.154Z,74.89
2019-03-05T07:26:29.362Z,78.59
2019-03-05T07:28:58.564Z,81.23
2019-03-05T07:31:27.782Z,83.16
2019-03-05T07:33:56.984Z,84.04
2019-03-05T07:36:26.274Z,83.10
2019-03-05T07:38:55.510Z,82.66
2019-03-05T07:41:24.761Z,82.81
2019-03-05T07:43:53.980Z,83.21
2019-03-05T07:46:41.373Z,83.44
2019-03-05T07:49:28.635Z,81.28
2019-03-05T07:51:59.532Z,81.38
2019-03-05T07:54:28.763Z,79.07
2019-03-05T07:56:57.963Z,81.18
2019-03-05T07:59:27.637Z,82.85
2019-03-05T08:01:56.835Z,83.58
2019-03-05T08:04:26.131Z,83.72
2019-03-05T08:06:55.338Z,82.57
2019-03-05T08:09:27.602Z,81.50
2019-03-05T08:12:08.699Z,81.42
2019-03-05T08:14:55.976Z,74.32
2019-03-05T08:17:26.012Z,78.63
2019-03-05T08:19:55.330Z,76.58
2019-03-05T08:22:24.809Z,76.50
2019-03-05T08:24:54.072Z,75.76
2019-03-05T08:27:41.258Z,77.83
2019-03-05T08:30:28.574Z,77.51
2019-03-05T08:32:57.808Z,78.78
2019-03-05T08:35:27.005Z,80.44
2019-03-05T08:37:56.204Z,81.26
2019-03-05T08:40:25.471Z,83.01
2019-03-05T08:42:54.670Z,83.73
2019-03-05T08:45:29.400Z,83.81
2019-03-05T08:47:54.886Z,83.65
2019-03-05T08:50:24.184Z,78.75
2019-03-05T08:52:53.405Z,76.28
2019-03-05T08:55:22.698Z,76.30
2019-03-05T08:57:51.993Z,74.02
2019-03-05T09:00:21.747Z,78.38
2019-03-05T09:02:50.930Z,80.06
2019-03-05T09:05:20.942Z,79.22
2019-03-05T09:07:50.313Z,79.22
2019-03-05T09:10:22.428Z,80.97
2019-03-05T09:13:10.237Z,81.33
2019-03-05T09:15:39.453Z,81.23
2019-03-05T09:18:08.687Z,81.43
2019-03-05T09:20:38.671Z,80.82
2019-03-05T09:23:07.878Z,80.96
2019-03-05T09:25:37.295Z,80.84
2019-03-05T09:28:07.464Z,82.00
2019-03-05T09:30:36.705Z,82.03
2019-03-05T09:33:05.880Z,81.71
2019-03-05T09:35:53.342Z,79.79
2019-03-05T09:38:31.450Z,79.54
2019-03-05T09:41:00.652Z,79.88
2019-03-05T09:43:29.992Z,79.79
2019-03-05T09:45:59.370Z,79.71
2019-03-05T09:48:28.546Z,79.40
2019-03-05T09:50:57.710Z,78.50
2019-03-05T09:53:26.889Z,78.01
2019-03-05T09:55:56.614Z,77.86
2019-03-05T09:58:25.838Z,77.55
2019-03-05T10:00:55.047Z,77.14
2019-03-05T10:03:24.140Z,77.66
2019-03-05T10:05:53.394Z,77.13
2019-03-05T10:08:31.884Z,75.59
2019-03-05T10:10:53.596Z,73.70
2019-03-05T10:13:22.844Z,73.54
2019-03-05T10:15:53.461Z,73.64
2019-03-05T10:18:22.795Z,73.45
2019-03-05T10:20:51.981Z,74.54
2019-03-05T10:23:21.288Z,74.25
2019-03-05T10:25:50.525Z,73.64
2019-03-05T10:28:19.697Z,74.56
2019-03-05T10:30:48.901Z,76.65
2019-03-05T10:33:18.674Z,77.21
2019-03-05T10:35:47.893Z,77.40
2019-03-05T10:38:17.060Z,76.97
2019-03-05T10:40:49.534Z,76.41
2019-03-05T10:43:19.142Z,75.55
2019-03-05T10:45:49.284Z,75.19
2019-03-05T10:48:20.659Z,74.41
2019-03-05T10:50:51.578Z,73.72
2019-03-05T10:53:20.902Z,73.67
2019-03-05T10:55:50.151Z,72.54
2019-03-05T10:58:19.329Z,71.93
2019-03-05T11:00:56.211Z,71.73
2019-03-05T11:03:29.370Z,72.06
2019-03-05T11:05:58.807Z,73.31
2019-03-05T11:08:28.526Z,72.41
2019-03-05T11:10:59.144Z,71.52
2019-03-05T11:13:28.421Z,71.18
2019-03-05T11:16:02.550Z,70.82
2019-03-05T11:18:33.686Z,68.37
2019-03-05T11:21:02.907Z,67.33
2019-03-05T11:23:32.068Z,67.56
2019-03-05T11:26:01.292Z,68.52
2019-03-05T11:28:30.473Z,68.88
2019-03-05T11:30:59.717Z,69.39
2019-03-05T11:33:28.980Z,68.41
2019-03-05T11:35:58.219Z,67.51
2019-03-05T11:38:27.391Z,65.66
2019-03-05T11:40:56.565Z,65.66
2019-03-05T11:43:25.736Z,65.48
2019-03-05T11:45:55.821Z,65.23
2019-03-05T11:48:24.986Z,64.55
2019-03-05T11:50:54.153Z,65.04
2019-03-05T11:53:23.493Z,65.57
2019-03-05T11:55:53.246Z,65.57
2019-03-05T11:58:22.449Z,66.08
2019-03-05T12:01:02.029Z,66.45
2019-03-05T12:03:31.219Z,66.21
2019-03-05T12:06:00.387Z,66.21
2019-03-05T12:08:29.567Z,66.63
2019-03-05T12:10:58.729Z,66.63
2019-03-05T12:13:27.971Z,66.38
2019-03-05T12:15:57.402Z,66.03
2019-03-05T12:18:26.579Z,63.98
2019-03-05T12:20:55.758Z,63.98
2019-03-05T12:23:24.984Z,62.66
2019-03-05T12:25:54.190Z,62.93
2019-03-05T12:28:23.694Z,63.17
2019-03-05T12:30:53.498Z,63.17
2019-03-05T12:33:22.729Z,62.75
2019-03-05T12:35:52.005Z,63.31
2019-03-05T12:38:21.204Z,63.31
2019-03-05T12:40:50.998Z,64.14
2019-03-05T12:43:20.218Z,64.17
2019-03-05T12:45:49.428Z,63.05
2019-03-05T12:48:18.627Z,61.41
2019-03-05T12:50:47.913Z,60.34
2019-03-05T12:53:18.213Z,60.34
2019-03-05T12:55:47.384Z,59.30
2019-03-05T12:58:16.551Z,59.98
2019-03-05T13:00:45.712Z,61.18
2019-03-05T13:03:14.876Z,61.18
2019-03-05T13:05:44.068Z,61.39
2019-03-05T13:08:13.261Z,61.53
2019-03-05T13:10:45.111Z,62.30
2019-03-05T13:13:15.382Z,61.95
2019-03-05T13:15:45.305Z,61.79
2019-03-05T13:18:14.880Z,61.55
2019-03-05T13:20:44.059Z,61.55
2019-03-05T13:23:14.475Z,60.86
2019-03-05T13:25:43.647Z,60.36
2019-03-05T13:28:12.935Z,60.36
2019-03-05T13:30:42.897Z,60.23
2019-03-05T13:33:12.064Z,60.18
2019-03-05T13:35:41.242Z,60.21
2019-03-05T13:38:11.067Z,60.21
2019-03-05T13:40:40.795Z,60.00
2019-03-05T13:43:10.164Z,60.62
2019-03-05T13:45:42.323Z,62.37
2019-03-05T13:48:19.801Z,62.45
2019-03-05T13:51:08.733Z,62.21
2019-03-05T13:54:01.687Z,63.32
2019-03-05T13:56:52.581Z,63.32
2019-03-05T13:59:34.721Z,63.72
2019-03-05T14:02:04.913Z,63.78
2019-03-05T14:04:37.178Z,63.32
2019-03-05T14:07:12.314Z,61.73
2019-03-05T14:09:40.393Z,60.85
2019-03-05T14:12:09.505Z,60.28
2019-03-05T14:14:38.772Z,60.28
2019-03-05T14:17:15.284Z,58.99
2019-03-05T14:19:44.565Z,58.60
2019-03-05T14:22:13.814Z,58.45
2019-03-05T14:24:43.169Z,58.45
2019-03-05T14:27:12.737Z,58.65
2019-03-05T14:29:42.035Z,58.85
2019-03-05T14:32:11.680Z,59.82
2019-03-05T14:34:40.977Z,59.82
2019-03-05T14:37:10.179Z,59.77
2019-03-05T14:39:40.333Z,60.15
2019-03-05T14:42:11.233Z,59.42
2019-03-05T14:44:41.499Z,60.10
2019-03-05T14:47:28.611Z,59.66
2019-03-05T14:50:15.523Z,60.66
2019-03-05T14:52:44.811Z,60.66
2019-03-05T14:55:14.615Z,59.96
2019-03-05T14:57:43.872Z,60.41
2019-03-05T15:00:16.199Z,59.54
2019-03-05T15:02:46.385Z,59.00
2019-03-05T15:05:15.911Z,58.99
2019-03-05T15:07:45.288Z,57.96
2019-03-05T15:10:14.517Z,55.28
2019-03-05T15:12:43.799Z,55.28
2019-03-05T15:15:22.016Z,55.00
2019-03-05T15:17:51.500Z,56.52
2019-03-05T15:20:21.613Z,57.14
2019-03-05T15:22:50.990Z,57.14
2019-03-05T15:25:20.302Z,56.91
2019-03-05T15:27:49.673Z,57.09
2019-03-05T15:30:21.458Z,58.34
2019-03-05T15:33:09.189Z,58.18
2019-03-05T15:35:56.270Z,59.42
2019-03-05T15:38:31.393Z,59.42
2019-03-05T15:41:00.643Z,58.58
2019-03-05T15:43:29.816Z,57.89
2019-03-05T15:45:59.350Z,57.70
2019-03-05T15:48:28.612Z,57.70
2019-03-05T15:50:57.817Z,55.81
2019-03-05T15:53:27.743Z,56.33
2019-03-05T15:55:57.091Z,56.33
2019-03-05T15:58:26.344Z,56.06
2019-03-05T16:00:55.664Z,55.65
2019-03-05T16:03:24.931Z,55.47
2019-03-05T16:05:57.740Z,56.27
2019-03-05T16:08:26.253Z,56.27
2019-03-05T16:10:58.583Z,56.19
2019-03-05T16:13:26.509Z,56.59
2019-03-05T16:15:55.809Z,57.11
2019-03-05T16:18:25.013Z,57.72
2019-03-05T16:20:58.125Z,57.72
2019-03-05T16:23:28.419Z,57.75
2019-03-05T16:25:57.197Z,56.40
2019-03-05T16:28:26.429Z,55.61
2019-03-05T16:30:57.296Z,55.61
2019-03-05T16:33:32.376Z,57.99
2019-03-05T16:36:10.043Z,59.28
2019-03-05T16:38:59.056Z,59.28
2019-03-05T16:41:39.540Z,61.75
2019-03-05T16:44:12.960Z,61.75
2019-03-05T16:46:55.869Z,64.76
2019-03-05T16:49:26.744Z,65.36
2019-03-05T16:52:08.186Z,65.36
2019-03-05T16:54:54.242Z,66.65
2019-03-05T16:57:25.181Z,67.08
2019-03-05T17:00:08.100Z,67.19
2019-03-05T17:02:54.100Z,67.26
2019-03-05T17:05:38.271Z,67.74
2019-03-05T17:08:14.753Z,69.16
2019-03-05T17:11:03.973Z,68.56
2019-03-05T17:13:33.274Z,69.54
2019-03-05T17:16:02.646Z,69.54
2019-03-05T17:18:31.889Z,68.76
2019-03-05T17:21:02.314Z,69.65
2019-03-05T17:23:31.614Z,69.65
2019-03-05T17:26:01.005Z,71.50
2019-03-05T17:28:30.212Z,71.76
2019-03-05T17:30:59.441Z,71.76
2019-03-05T17:33:28.641Z,72.15
2019-03-05T17:35:57.867Z,72.06
2019-03-05T17:38:27.162Z,72.04
2019-03-05T17:40:56.465Z,72.24
2019-03-05T17:43:25.865Z,72.25
2019-03-05T17:45:55.116Z,72.25
2019-03-05T17:48:24.358Z,72.01
2019-03-05T17:50:53.572Z,71.97
2019-03-05T17:53:22.808Z,72.05
2019-03-05T17:55:52.016Z,71.99
2019-03-05T17:58:21.355Z,72.10
2019-03-05T18:00:51.411Z,72.06
2019-03-05T18:03:20.691Z,72.00
2019-03-05T18:05:49.930Z,72.09
2019-03-05T18:08:20.663Z,72.21
2019-03-05T18:10:51.669Z,72.78
2019-03-05T18:13:21.212Z,72.69
2019-03-05T18:15:50.571Z,72.26
2019-03-05T18:18:24.367Z,72.07
2019-03-05T18:20:53.590Z,71.44
2019-03-05T18:23:22.769Z,71.44
2019-03-05T18:25:52.912Z,72.21
2019-03-05T18:28:22.086Z,72.39
2019-03-05T18:30:51.349Z,72.24
2019-03-05T18:33:20.638Z,72.24
2019-03-05T18:35:49.831Z,72.77
2019-03-05T18:38:19.001Z,72.77
2019-03-05T18:40:48.275Z,72.60
2019-03-05T18:43:17.494Z,72.92
2019-03-05T18:45:46.801Z,73.22
2019-03-05T18:48:15.981Z,73.22
2019-03-05T18:50:45.677Z,72.93
2019-03-05T18:53:16.632Z,72.75
2019-03-05T18:55:46.343Z,72.94
2019-03-05T18:58:15.541Z,73.09
2019-03-05T19:00:44.810Z,73.28
2019-03-05T19:03:20.079Z,73.41
2019-03-05T19:05:49.444Z,73.27
2019-03-05T19:08:18.643Z,73.50
2019-03-05T19:10:47.842Z,73.70
2019-03-05T19:13:17.120Z,73.82
2019-03-05T19:15:46.575Z,73.74
2019-03-05T19:18:15.763Z,73.90
2019-03-05T19:20:45.403Z,73.98
2019-03-05T19:23:14.568Z,74.29
2019-03-05T19:25:45.680Z,74.53
2019-03-05T19:28:15.024Z,74.56
2019-03-05T19:30:46.374Z,74.57
2019-03-05T19:33:15.573Z,74.47
2019-03-05T19:35:44.795Z,74.35
2019-03-05T19:38:14.049Z,74.41
2019-03-05T19:40:45.438Z,74.34
2019-03-05T19:43:15.575Z,74.34
2019-03-05T19:45:45.047Z,74.61
2019-03-05T19:48:14.221Z,74.93
2019-03-05T19:50:43.677Z,74.98
2019-03-05T19:53:12.852Z,74.93
2019-03-05T19:55:42.011Z,74.70
2019-03-05T19:58:12.182Z,74.78
2019-03-05T20:00:46.059Z,74.74
2019-03-05T20:03:15.215Z,74.91
2019-03-05T20:05:44.474Z,74.83
2019-03-05T20:08:13.919Z,74.94
2019-03-05T20:10:43.315Z,75.00
2019-03-05T20:13:12.859Z,74.85
2019-03-05T20:15:43.144Z,74.85
2019-03-05T20:18:12.323Z,74.92
2019-03-05T20:20:41.556Z,74.65
2019-03-05T20:23:10.741Z,74.69
2019-03-05T20:25:40.428Z,74.62
2019-03-05T20:28:09.607Z,74.69
2019-03-05T20:30:41.303Z,74.62
2019-03-05T20:33:10.547Z,74.89
2019-03-05T20:35:39.773Z,74.79
2019-03-05T20:38:09.396Z,74.86
2019-03-05T20:40:56.813Z,74.96
2019-03-05T20:43:25.989Z,74.94
2019-03-05T20:46:04.216Z,75.03
2019-03-05T20:48:51.501Z,75.12
2019-03-05T20:51:20.718Z,74.92
2019-03-05T20:53:52.738Z,75.32
2019-03-05T20:56:21.917Z,75.25
2019-03-05T20:58:51.098Z,75.55
2019-03-05T21:01:20.266Z,75.57
2019-03-05T21:03:49.990Z,75.65
2019-03-05T21:06:19.324Z,75.64
2019-03-05T21:08:48.499Z,75.60
2019-03-05T21:11:17.668Z,75.54
2019-03-05T21:13:46.832Z,75.70
2019-03-05T21:16:16.130Z,75.70
2019-03-05T21:18:45.545Z,75.67
2019-03-05T21:21:14.753Z,75.62
2019-03-05T21:23:43.900Z,75.61
2019-03-05T21:26:13.061Z,75.61
2019-03-05T21:28:42.251Z,75.80
2019-03-05T21:31:11.602Z,75.87
2019-03-05T21:33:40.775Z,76.31
2019-03-05T21:36:10.384Z,76.57
2019-03-05T21:38:41.168Z,76.43
2019-03-05T21:41:10.439Z,76.59
2019-03-05T21:43:39.687Z,76.80
2019-03-05T21:46:12.266Z,76.86
2019-03-05T21:48:41.457Z,76.86
2019-03-05T21:51:10.625Z,77.77
2019-03-05T21:53:40.455Z,77.77
2019-03-05T21:56:10.575Z,78.04
2019-03-05T21:58:39.737Z,78.31
2019-03-05T22:01:09.070Z,78.71
2019-03-05T22:03:38.231Z,78.96
2019-03-05T22:06:07.569Z,79.23
2019-03-05T22:08:38.123Z,79.75
2019-03-05T22:11:07.441Z,80.36
2019-03-05T22:13:36.646Z,81.07
2019-03-05T22:16:05.999Z,81.88
2019-03-05T22:18:35.256Z,82.16
2019-03-05T22:21:04.651Z,82.48
2019-03-05T22:23:33.950Z,82.87
2019-03-05T22:26:03.201Z,83.44
2019-03-05T22:28:32.540Z,83.82
2019-03-05T22:31:01.751Z,84.27
2019-03-05T22:33:31.220Z,84.73
2019-03-05T22:36:00.315Z,85.19
2019-03-05T22:38:31.268Z,85.31
2019-03-05T22:41:00.756Z,85.90
2019-03-05T22:43:29.917Z,86.46
2019-03-05T22:45:59.080Z,86.67
2019-03-05T22:48:28.250Z,87.63
2019-03-05T22:50:57.434Z,88.54
2019-03-05T22:53:26.791Z,89.55
2019-03-05T22:55:55.969Z,90.51
2019-03-05T22:58:25.135Z,91.14
2019-03-05T23:01:10.096Z,92.01
2019-03-05T23:03:40.412Z,93.00
2019-03-05T23:06:12.492Z,93.81
2019-03-05T23:08:41.898Z,93.90
2019-03-05T23:11:11.033Z,93.99
2019-03-05T23:13:40.343Z,94.18
2019-03-05T23:16:09.532Z,94.61
2019-03-05T23:18:38.698Z,95.36
2019-03-05T23:21:08.398Z,96.05
2019-03-05T23:23:37.590Z,96.50
2019-03-05T23:26:07.174Z,96.85
2019-03-05T23:28:36.823Z,97.04
2019-03-05T23:31:07.059Z,97.62
2019-03-05T23:33:36.293Z,97.92
2019-03-05T23:36:05.639Z,97.99
2019-03-05T23:38:53.051Z,98.33
2019-03-05T23:41:40.520Z,98.65
2019-03-05T23:44:09.695Z,98.98
2019-03-05T23:46:38.890Z,99.38
2019-03-05T23:49:08.239Z,99.78
2019-03-05T23:51:37.424Z,100.00
2019-03-05T23:54:06.701Z,100.00
2019-03-05T23:56:36.168Z,100.00
2019-03-05T23:59:05.353Z,100.00
